createdAt,value
2022-09-06T00:01:41.583Z,76.60
2022-09-06T00:04:13.089Z,76.30
2022-09-06T00:06:41.873Z,76.30
2022-09-06T00:09:08.584Z,76.20
2022-09-06T00:11:35.273Z,76.40
2022-09-06T00:14:02.037Z,75.80
2022-09-06T00:16:30.566Z,75.60
2022-09-06T00:18:57.410Z,75.10
2022-09-06T00:21:25.462Z,74.80
2022-09-06T00:23:52.656Z,74.70
2022-09-06T00:26:19.855Z,74.30
2022-09-06T00:28:46.818Z,74.30
2022-09-06T00:31:14.724Z,74.00
2022-09-06T00:33:41.545Z,73.80
2022-09-06T00:36:08.927Z,73.60
2022-09-06T00:38:35.684Z,73.40
2022-09-06T00:41:02.649Z,72.90
2022-09-06T00:43:29.437Z,73.00
2022-09-06T00:45:56.330Z,72.50
2022-09-06T00:48:23.419Z,73.30
2022-09-06T00:50:52.030Z,72.40
2022-09-06T00:53:19.274Z,72.40
2022-09-06T00:55:46.022Z,72.00
2022-09-06T00:58:13.055Z,71.20
2022-09-06T01:00:39.768Z,71.10
2022-09-06T01:03:07.193Z,70.70
2022-09-06T01:05:54.748Z,70.80
2022-09-06T01:08:30.606Z,70.80
2022-09-06T01:11:05.783Z,70.50
2022-09-06T01:13:41.405Z,70.30
2022-09-06T01:16:08.149Z,70.40
2022-09-06T01:18:34.846Z,70.20
2022-09-06T01:21:04.277Z,70.40
2022-09-06T01:23:43.986Z,70.30
2022-09-06T01:26:29.328Z,70.10
2022-09-06T01:28:56.413Z,70.40
2022-09-06T01:31:26.031Z,70.80
2022-09-06T01:34:08.207Z,70.80
2022-09-06T01:36:49.631Z,70.70
2022-09-06T01:39:30.319Z,70.70
2022-09-06T01:41:58.358Z,70.80
2022-09-06T01:44:26.230Z,70.70
2022-09-06T01:46:52.942Z,71.00
2022-09-06T01:49:28.753Z,71.10
2022-09-06T01:52:01.660Z,71.30
2022-09-06T01:54:28.358Z,71.60
2022-09-06T01:57:01.345Z,71.90
2022-09-06T01:59:37.820Z,72.30
2022-09-06T02:02:27.923Z,72.50
2022-09-06T02:05:01.820Z,73.30
2022-09-06T02:07:29.655Z,73.50
2022-09-06T02:09:59.117Z,73.80
2022-09-06T02:12:26.829Z,74.10
2022-09-06T02:14:56.400Z,74.50
2022-09-06T02:17:26.282Z,74.10
2022-09-06T02:19:58.264Z,73.70
2022-09-06T02:22:27.308Z,74.20
2022-09-06T02:24:55.177Z,73.00
2022-09-06T02:27:21.919Z,72.70
2022-09-06T02:29:48.721Z,72.50
2022-09-06T02:32:15.459Z,73.40
2022-09-06T02:34:43.297Z,74.80
2022-09-06T02:37:12.745Z,75.20
2022-09-06T02:39:39.777Z,75.70
2022-09-06T02:42:08.586Z,75.50
2022-09-06T02:44:35.263Z,75.50
2022-09-06T02:47:03.355Z,75.30
2022-09-06T02:49:30.377Z,75.00
2022-09-06T02:51:57.223Z,74.50
2022-09-06T02:54:24.405Z,74.30
2022-09-06T02:56:52.471Z,75.00
2022-09-06T02:59:19.373Z,76.20
2022-09-06T03:01:46.093Z,78.70
2022-09-06T03:04:12.909Z,79.30
2022-09-06T03:06:39.635Z,79.50
2022-09-06T03:09:06.346Z,79.80
2022-09-06T03:11:33.057Z,79.60
2022-09-06T03:13:59.749Z,79.70
2022-09-06T03:16:26.548Z,79.10
2022-09-06T03:18:53.422Z,78.30
2022-09-06T03:21:20.355Z,77.50
2022-09-06T03:23:47.394Z,76.10
2022-09-06T03:26:14.119Z,75.20
2022-09-06T03:28:40.994Z,74.80
2022-09-06T03:31:07.838Z,73.80
2022-09-06T03:33:34.623Z,73.60
2022-09-06T03:36:01.653Z,73.00
2022-09-06T03:38:29.058Z,72.90
2022-09-06T03:40:56.168Z,72.70
2022-09-06T03:43:23.858Z,72.90
2022-09-06T03:45:52.418Z,72.90
2022-09-06T03:48:19.836Z,73.10
2022-09-06T03:50:54.096Z,73.10
2022-09-06T03:53:21.704Z,73.20
2022-09-06T03:55:49.147Z,73.00
2022-09-06T03:58:16.856Z,72.50
2022-09-06T04:00:43.642Z,72.50
2022-09-06T04:03:10.818Z,72.40
2022-09-06T04:05:37.740Z,72.40
2022-09-06T04:08:05.901Z,72.20
2022-09-06T04:10:32.906Z,72.00
2022-09-06T04:12:59.618Z,71.80
2022-09-06T04:15:26.444Z,71.80
2022-09-06T04:17:53.133Z,71.70
2022-09-06T04:20:19.886Z,72.10
2022-09-06T04:22:46.679Z,71.80
2022-09-06T04:25:13.896Z,71.70
2022-09-06T04:27:40.671Z,71.80
2022-09-06T04:30:10.156Z,71.40
2022-09-06T04:32:36.931Z,71.60
2022-09-06T04:35:03.913Z,71.40
2022-09-06T04:37:30.641Z,71.20
2022-09-06T04:39:57.361Z,70.60
2022-09-06T04:42:26.452Z,70.90
2022-09-06T04:44:53.221Z,70.50
2022-09-06T04:47:19.984Z,70.60
2022-09-06T04:49:49.249Z,71.10
2022-09-06T04:52:16.550Z,70.80
2022-09-06T04:54:43.598Z,70.60
2022-09-06T04:57:10.538Z,70.70
2022-09-06T04:59:37.600Z,70.50
2022-09-06T05:02:04.400Z,70.30
2022-09-06T05:04:31.139Z,70.20
2022-09-06T05:07:05.079Z,70.50
2022-09-06T05:09:32.545Z,70.20
2022-09-06T05:11:59.936Z,70.10
2022-09-06T05:14:27.274Z,70.00
2022-09-06T05:16:54.526Z,70.10
2022-09-06T05:19:21.639Z,70.60
2022-09-06T05:21:48.370Z,70.20
2022-09-06T05:24:15.066Z,70.30
2022-09-06T05:26:41.792Z,70.20
2022-09-06T05:29:08.590Z,70.00
2022-09-06T05:31:35.683Z,70.30
2022-09-06T05:34:02.667Z,70.30
2022-09-06T05:36:30.504Z,70.30
2022-09-06T05:38:57.831Z,70.00
2022-09-06T05:41:24.985Z,69.80
2022-09-06T05:43:51.795Z,69.30
2022-09-06T05:46:18.915Z,69.50
2022-09-06T05:48:52.322Z,69.40
2022-09-06T05:51:19.113Z,69.30
2022-09-06T05:53:45.922Z,69.30
2022-09-06T05:56:13.989Z,69.40
2022-09-06T05:58:40.731Z,69.60
2022-09-06T06:01:17.800Z,69.60
2022-09-06T06:03:54.795Z,69.50
2022-09-06T06:06:22.240Z,69.60
2022-09-06T06:08:51.242Z,70.40
2022-09-06T06:11:17.963Z,69.70
2022-09-06T06:13:45.164Z,69.90
2022-09-06T06:16:13.168Z,70.00
2022-09-06T06:18:39.922Z,69.90
2022-09-06T06:21:14.181Z,69.80
2022-09-06T06:23:41.680Z,69.10
2022-09-06T06:26:09.115Z,69.90
2022-09-06T06:28:36.132Z,69.50
2022-09-06T06:31:03.803Z,68.60
2022-09-06T06:33:31.119Z,69.10
2022-09-06T06:36:05.691Z,68.40
2022-09-06T06:38:33.393Z,68.90
2022-09-06T06:41:05.823Z,68.10
2022-09-06T06:43:37.745Z,67.90
2022-09-06T06:46:05.347Z,67.00
2022-09-06T06:48:32.265Z,66.80
2022-09-06T06:50:59.022Z,66.20
2022-09-06T06:53:25.891Z,66.30
2022-09-06T06:55:52.953Z,66.50
2022-09-06T06:58:20.244Z,65.50
2022-09-06T07:00:47.315Z,65.70
2022-09-06T07:03:14.251Z,66.30
2022-09-06T07:08:30.290Z,65.90
2022-09-06T07:10:57.150Z,66.30
2022-09-06T07:13:24.146Z,66.40
2022-09-06T07:15:51.481Z,66.40
2022-09-06T07:18:18.551Z,65.00
2022-09-06T07:26:22.269Z,63.80
2022-09-06T07:28:59.349Z,62.00
2022-09-06T07:34:14.654Z,65.20
2022-09-06T07:36:41.443Z,65.60
2022-09-06T07:39:08.291Z,64.80
2022-09-06T07:41:35.133Z,65.70
2022-09-06T07:44:02.111Z,66.00
2022-09-06T07:46:28.981Z,66.00
2022-09-06T07:48:55.916Z,65.80
2022-09-06T07:51:22.861Z,65.30
2022-09-06T07:54:07.375Z,65.80
2022-09-06T07:56:42.768Z,65.70
2022-09-06T07:59:09.553Z,65.70
2022-09-06T08:01:38.085Z,66.20
2022-09-06T08:04:09.765Z,66.30
2022-09-06T08:09:26.217Z,65.80
2022-09-06T08:11:53.248Z,64.90
2022-09-06T08:14:20.417Z,67.00
2022-09-06T08:16:47.673Z,65.10
2022-09-06T08:19:14.753Z,65.50
2022-09-06T08:21:41.695Z,63.30
2022-09-06T08:24:12.277Z,63.20
2022-09-06T08:26:43.182Z,61.10
2022-09-06T08:29:10.960Z,62.30
2022-09-06T08:31:42.896Z,63.30
2022-09-06T08:34:12.559Z,63.40
2022-09-06T08:36:39.847Z,63.60
2022-09-06T08:39:09.128Z,65.50
2022-09-06T08:42:05.725Z,62.20
2022-09-06T08:44:57.840Z,62.30
2022-09-06T08:47:25.240Z,61.30
2022-09-06T08:49:56.682Z,61.00
2022-09-06T08:52:29.741Z,59.60
2022-09-06T08:55:13.130Z,60.10
2022-09-06T08:57:45.901Z,59.10
2022-09-06T09:00:15.038Z,57.60
2022-09-06T09:02:47.287Z,57.30
2022-09-06T09:05:21.917Z,56.80
2022-09-06T09:08:18.306Z,57.70
2022-09-06T09:10:56.957Z,56.00
2022-09-06T09:13:39.017Z,56.20
2022-09-06T09:16:06.797Z,55.90
2022-09-06T09:18:36.282Z,55.90
2022-09-06T09:21:03.104Z,55.30
2022-09-06T09:23:30.947Z,55.70
2022-09-06T09:26:02.507Z,54.00
2022-09-06T09:28:29.366Z,52.90
2022-09-06T09:30:56.903Z,53.40
2022-09-06T09:33:32.360Z,53.30
2022-09-06T09:36:01.055Z,53.60
2022-09-06T09:38:29.968Z,52.70
2022-09-06T09:40:58.364Z,53.10
2022-09-06T09:43:51.424Z,53.10
2022-09-06T09:46:24.042Z,52.80
2022-09-06T09:49:06.212Z,52.10
2022-09-06T09:51:37.711Z,51.50
2022-09-06T09:54:05.955Z,51.40
2022-09-06T09:56:34.661Z,52.50
2022-09-06T09:59:02.091Z,51.60
2022-09-06T10:01:33.730Z,52.70
2022-09-06T10:09:46.496Z,53.50
2022-09-06T10:12:29.049Z,52.10
2022-09-06T10:14:56.505Z,52.70
2022-09-06T10:17:33.679Z,52.70
2022-09-06T10:20:07.836Z,52.50
2022-09-06T10:22:51.672Z,54.50
2022-09-06T10:25:21.384Z,54.00
2022-09-06T10:28:11.007Z,53.60
2022-09-06T10:30:46.014Z,52.80
2022-09-06T10:33:33.864Z,52.20
2022-09-06T10:36:02.046Z,52.90
2022-09-06T10:38:32.418Z,51.00
2022-09-06T10:41:02.109Z,53.00
2022-09-06T10:43:35.369Z,52.10
2022-09-06T10:46:03.221Z,53.40
2022-09-06T10:48:31.673Z,51.70
2022-09-06T10:51:01.103Z,51.50
2022-09-06T10:53:49.594Z,49.30
2022-09-06T10:56:19.145Z,49.90
2022-09-06T11:01:37.562Z,49.00
2022-09-06T11:04:12.562Z,48.80
2022-09-06T11:06:48.689Z,49.20
2022-09-06T11:09:23.250Z,49.50
2022-09-06T11:12:01.154Z,50.50
2022-09-06T11:14:28.831Z,49.60
2022-09-06T11:17:03.493Z,48.00
2022-09-06T11:19:59.405Z,51.20
2022-09-06T11:22:26.165Z,48.40
2022-09-06T11:24:52.839Z,47.70
2022-09-06T11:27:25.612Z,48.10
2022-09-06T11:29:56.571Z,49.30
2022-09-06T11:32:45.728Z,49.40
2022-09-06T11:35:32.676Z,47.50
2022-09-06T11:38:01.183Z,48.60
2022-09-06T11:40:41.685Z,47.20
2022-09-06T11:43:12.327Z,46.90
2022-09-06T11:45:45.858Z,47.20
2022-09-06T11:48:34.392Z,48.30
2022-09-06T11:51:03.456Z,48.40
2022-09-06T11:53:32.015Z,48.20
2022-09-06T11:56:01.489Z,47.20
2022-09-06T11:58:28.239Z,47.00
2022-09-06T12:01:30.324Z,47.90
2022-09-06T12:04:05.549Z,48.40
2022-09-06T12:06:43.973Z,48.50
2022-09-06T12:09:29.234Z,49.20
2022-09-06T12:11:56.658Z,48.90
2022-09-06T12:14:40.418Z,50.60
2022-09-06T12:17:07.857Z,48.10
2022-09-06T12:19:46.841Z,48.10
2022-09-06T12:22:37.469Z,47.20
2022-09-06T12:25:04.202Z,47.40
2022-09-06T12:27:40.020Z,46.70
2022-09-06T12:30:09.131Z,47.90
2022-09-06T12:32:44.000Z,48.20
2022-09-06T12:38:03.879Z,47.00
2022-09-06T12:40:32.606Z,46.40
2022-09-06T12:43:00.077Z,46.70
2022-09-06T12:45:27.711Z,46.40
2022-09-06T12:48:10.000Z,46.00
2022-09-06T12:50:37.532Z,44.30
2022-09-06T12:53:25.012Z,45.60
2022-09-06T12:56:07.106Z,45.60
2022-09-06T12:58:34.630Z,47.10
2022-09-06T13:01:24.198Z,46.70
2022-09-06T13:04:09.554Z,47.10
2022-09-06T13:06:42.454Z,46.70
2022-09-06T13:09:14.325Z,45.60
2022-09-06T13:11:46.042Z,45.80
2022-09-06T13:14:17.559Z,47.10
2022-09-06T13:16:51.344Z,48.40
2022-09-06T13:19:29.246Z,48.50
2022-09-06T13:21:56.089Z,48.30
2022-09-06T13:24:23.798Z,48.30
2022-09-06T13:26:51.136Z,49.70
2022-09-06T13:29:17.828Z,54.20
2022-09-06T13:31:48.323Z,53.70
2022-09-06T13:34:28.451Z,55.10
2022-09-06T13:37:02.293Z,54.70
2022-09-06T13:39:39.469Z,54.70
2022-09-06T13:42:07.412Z,53.00
2022-09-06T13:44:44.149Z,55.30
2022-09-06T13:47:10.847Z,56.10
2022-09-06T13:49:37.569Z,56.50
2022-09-06T13:52:04.684Z,57.10
2022-09-06T13:54:32.108Z,58.50
2022-09-06T13:56:59.019Z,57.60
2022-09-06T13:59:25.849Z,59.60
2022-09-06T14:02:00.747Z,61.10
2022-09-06T14:04:27.900Z,60.40
2022-09-06T14:06:54.645Z,59.00
2022-09-06T14:09:21.564Z,57.70
2022-09-06T14:11:53.217Z,57.00
2022-09-06T14:14:20.238Z,56.80
2022-09-06T14:16:47.754Z,55.70
2022-09-06T14:19:15.147Z,55.80
2022-09-06T14:21:42.071Z,56.30
2022-09-06T14:24:08.931Z,56.50
2022-09-06T14:26:36.964Z,56.80
2022-09-06T14:29:03.773Z,55.90
2022-09-06T14:31:32.708Z,55.90
2022-09-06T14:34:00.841Z,54.20
2022-09-06T14:36:29.646Z,54.30
2022-09-06T14:38:57.485Z,55.10
2022-09-06T14:41:24.396Z,54.10
2022-09-06T14:43:52.441Z,53.40
2022-09-06T14:46:22.003Z,53.60
2022-09-06T14:48:49.296Z,53.40
2022-09-06T14:51:22.157Z,50.80
2022-09-06T14:53:50.635Z,49.90
2022-09-06T14:56:17.743Z,48.60
2022-09-06T14:58:45.468Z,48.10
2022-09-06T15:01:13.772Z,48.50
2022-09-06T15:03:41.736Z,47.20
2022-09-06T15:06:08.997Z,49.10
2022-09-06T15:08:36.240Z,48.30
2022-09-06T15:11:03.218Z,48.60
2022-09-06T15:13:30.321Z,49.20
2022-09-06T15:15:57.495Z,49.20
2022-09-06T15:18:24.416Z,50.20
2022-09-06T15:20:51.196Z,49.80
2022-09-06T15:23:25.819Z,50.10
2022-09-06T15:25:54.085Z,50.00
2022-09-06T15:28:21.178Z,50.40
2022-09-06T15:30:48.737Z,50.00
2022-09-06T15:33:15.593Z,50.60
2022-09-06T15:35:43.243Z,50.20
2022-09-06T15:38:10.788Z,49.60
2022-09-06T15:40:37.921Z,50.00
2022-09-06T15:43:05.180Z,50.10
2022-09-06T15:45:34.301Z,50.50
2022-09-06T15:48:01.522Z,49.30
2022-09-06T15:50:49.774Z,50.00
2022-09-06T15:53:15.202Z,49.00
2022-09-06T15:55:57.217Z,50.10
2022-09-06T15:58:27.106Z,50.20
2022-09-06T16:01:13.155Z,49.20
2022-09-06T16:03:41.994Z,48.10
2022-09-06T16:06:26.104Z,48.20
2022-09-06T16:09:14.485Z,48.60
2022-09-06T16:11:41.533Z,48.70
2022-09-06T16:14:11.565Z,49.10
2022-09-06T16:16:40.436Z,49.20
2022-09-06T16:19:07.451Z,47.30
2022-09-06T16:21:36.966Z,47.50
2022-09-06T16:24:09.570Z,48.20
2022-09-06T16:26:37.862Z,49.10
2022-09-06T16:29:05.511Z,49.60
2022-09-06T16:31:39.201Z,49.80
2022-09-06T16:34:07.891Z,50.30
2022-09-06T16:36:34.721Z,51.10
2022-09-06T16:39:01.654Z,51.50
2022-09-06T16:41:33.004Z,51.50
2022-09-06T16:43:59.796Z,51.90
2022-09-06T16:46:28.842Z,52.10
2022-09-06T16:49:01.012Z,52.80
2022-09-06T16:51:28.139Z,53.30
2022-09-06T16:53:55.184Z,53.50
2022-09-06T16:56:23.335Z,53.70
2022-09-06T16:58:57.160Z,53.80
2022-09-06T17:01:24.997Z,53.70
2022-09-06T17:03:54.154Z,54.00
2022-09-06T17:06:21.492Z,54.50
2022-09-06T17:08:48.329Z,54.90
2022-09-06T17:11:19.183Z,54.80
2022-09-06T17:13:47.058Z,55.10
2022-09-06T17:16:32.507Z,55.00
2022-09-06T17:19:00.121Z,57.50
2022-09-06T17:21:27.086Z,57.80
2022-09-06T17:23:54.001Z,58.20
2022-09-06T17:26:22.156Z,59.40
2022-09-06T17:28:49.687Z,59.80
2022-09-06T17:31:19.024Z,60.80
2022-09-06T17:33:51.007Z,60.50
2022-09-06T17:36:19.147Z,60.10
2022-09-06T17:38:49.851Z,60.10
2022-09-06T17:41:22.577Z,60.70
2022-09-06T17:43:49.356Z,62.10
2022-09-06T17:46:16.533Z,63.80
2022-09-06T17:48:43.642Z,62.60
2022-09-06T17:51:11.076Z,63.20
2022-09-06T17:53:38.078Z,63.60
2022-09-06T17:56:06.899Z,63.80
2022-09-06T17:58:33.649Z,64.70
2022-09-06T18:01:04.411Z,65.30
2022-09-06T18:03:31.661Z,65.50
2022-09-06T18:06:08.970Z,65.70
2022-09-06T18:08:36.360Z,65.60
2022-09-06T18:11:09.927Z,65.80
2022-09-06T18:13:36.877Z,65.70
2022-09-06T18:16:05.068Z,66.10
2022-09-06T18:18:32.722Z,68.10
2022-09-06T18:21:00.445Z,66.60
2022-09-06T18:23:28.748Z,67.70
2022-09-06T18:26:03.308Z,68.40
2022-09-06T18:28:31.497Z,69.10
2022-09-06T18:30:58.791Z,69.30
2022-09-06T18:33:25.790Z,69.20
2022-09-06T18:35:52.520Z,68.90
2022-09-06T18:38:19.342Z,68.70
2022-09-06T18:40:52.278Z,68.70
2022-09-06T18:43:19.866Z,68.90
2022-09-06T18:45:46.653Z,69.50
2022-09-06T18:48:13.734Z,71.50
2022-09-06T18:50:40.634Z,71.90
2022-09-06T18:53:07.405Z,74.30
2022-09-06T18:55:37.768Z,74.80
2022-09-06T18:58:05.687Z,74.90
2022-09-06T19:00:32.482Z,76.30
2022-09-06T19:02:59.533Z,77.10
2022-09-06T19:05:26.309Z,76.50
2022-09-06T19:07:53.085Z,77.80
2022-09-06T19:10:19.911Z,76.90
2022-09-06T19:12:50.205Z,76.50
2022-09-06T19:15:19.428Z,76.90
2022-09-06T19:17:48.426Z,77.90
2022-09-06T19:20:15.239Z,78.20
2022-09-06T19:22:41.997Z,78.90
2022-09-06T19:25:10.342Z,78.30
2022-09-06T19:27:37.480Z,80.10
2022-09-06T19:30:06.855Z,83.70
2022-09-06T19:32:34.213Z,85.80
2022-09-06T19:35:01.534Z,87.00
2022-09-06T19:37:29.589Z,87.00
2022-09-06T19:39:56.663Z,86.50
2022-09-06T19:42:23.519Z,86.80
2022-09-06T19:44:50.250Z,87.90
2022-09-06T19:47:17.914Z,88.70
2022-09-06T19:49:44.798Z,89.80
2022-09-06T19:52:11.653Z,90.50
2022-09-06T19:54:38.971Z,90.90
2022-09-06T19:57:06.153Z,90.30
2022-09-06T19:59:38.130Z,84.90
2022-09-06T20:02:05.178Z,84.30
2022-09-06T20:04:32.500Z,83.60
2022-09-06T20:06:59.233Z,83.20
2022-09-06T20:09:26.049Z,87.20
2022-09-06T20:11:53.312Z,85.60
2022-09-06T20:14:20.841Z,87.20
2022-09-06T20:16:47.803Z,86.00
2022-09-06T20:19:15.819Z,88.60
2022-09-06T20:21:43.137Z,88.30
2022-09-06T20:24:09.978Z,89.20
2022-09-06T20:26:36.944Z,88.90
2022-09-06T20:29:04.671Z,89.50
2022-09-06T20:31:32.711Z,88.20
2022-09-06T20:34:00.697Z,89.70
2022-09-06T20:36:27.624Z,89.70
2022-09-06T20:38:54.484Z,90.80
2022-09-06T20:41:23.448Z,90.70
2022-09-06T20:43:54.976Z,90.30
2022-09-06T20:46:23.186Z,90.40
2022-09-06T20:48:50.299Z,91.20
2022-09-06T20:51:20.146Z,91.80
2022-09-06T20:53:50.333Z,91.20
2022-09-06T20:56:21.347Z,90.80
2022-09-06T20:58:55.175Z,90.70
2022-09-06T21:01:23.470Z,91.20
2022-09-06T21:03:51.643Z,91.60
2022-09-06T21:06:19.094Z,91.60
2022-09-06T21:08:46.261Z,91.40
2022-09-06T21:11:13.029Z,91.00
2022-09-06T21:13:39.985Z,90.90
2022-09-06T21:16:07.091Z,91.00
2022-09-06T21:18:34.455Z,90.80
2022-09-06T21:21:05.104Z,90.70
2022-09-06T21:23:36.194Z,90.70
2022-09-06T21:26:12.680Z,90.90
2022-09-06T21:28:40.539Z,91.10
2022-09-06T21:31:10.046Z,91.10
2022-09-06T21:33:37.644Z,91.10
2022-09-06T21:36:07.036Z,91.10
2022-09-06T21:38:34.450Z,91.40
2022-09-06T21:41:01.676Z,91.60
2022-09-06T21:43:28.495Z,91.80
2022-09-06T21:45:55.237Z,91.70
2022-09-06T21:48:22.109Z,91.70
2022-09-06T21:50:48.939Z,92.20
2022-09-06T21:53:16.024Z,92.40
2022-09-06T21:55:43.713Z,92.80
2022-09-06T21:58:11.355Z,92.90
2022-09-06T22:00:41.209Z,92.90
2022-09-06T22:03:08.278Z,93.20
2022-09-06T22:05:35.415Z,92.90
2022-09-06T22:08:02.359Z,93.20
2022-09-06T22:10:29.105Z,93.10
2022-09-06T22:12:55.892Z,92.90
2022-09-06T22:15:23.670Z,93.30
2022-09-06T22:17:50.418Z,93.30
2022-09-06T22:20:17.209Z,93.20
2022-09-06T22:22:46.896Z,93.20
2022-09-06T22:25:16.212Z,92.90
2022-09-06T22:27:43.211Z,92.90
2022-09-06T22:30:10.161Z,92.70
2022-09-06T22:32:37.154Z,92.80
2022-09-06T22:35:05.992Z,92.80
2022-09-06T22:37:33.819Z,92.60
2022-09-06T22:40:01.276Z,92.60
2022-09-06T22:42:28.129Z,92.00
2022-09-06T22:44:54.931Z,91.80
2022-09-06T22:47:21.767Z,92.00
2022-09-06T22:49:48.529Z,92.60
2022-09-06T22:52:15.249Z,93.40
2022-09-06T22:54:41.986Z,94.30
2022-09-06T22:57:08.741Z,94.00
2022-09-06T22:59:36.159Z,94.10
2022-09-06T23:02:03.031Z,93.90
2022-09-06T23:04:29.784Z,93.30
2022-09-06T23:06:56.538Z,92.90
2022-09-06T23:09:23.277Z,92.90
2022-09-06T23:11:50.036Z,92.60
2022-09-06T23:14:16.772Z,92.80
2022-09-06T23:16:43.506Z,93.00
2022-09-06T23:19:10.978Z,93.60
2022-09-06T23:21:37.672Z,93.80
2022-09-06T23:24:04.374Z,93.90
2022-09-06T23:26:32.150Z,94.20
2022-09-06T23:28:58.884Z,94.60
2022-09-06T23:31:27.154Z,94.50
2022-09-06T23:33:57.997Z,94.60
2022-09-06T23:36:25.430Z,94.40
2022-09-06T23:38:52.443Z,94.30
2022-09-06T23:41:19.245Z,93.80
2022-09-06T23:43:45.976Z,93.60
2022-09-06T23:46:14.719Z,93.60
2022-09-06T23:48:42.330Z,93.50
2022-09-06T23:51:09.204Z,93.70
2022-09-06T23:53:36.072Z,93.50
2022-09-06T23:56:03.024Z,93.60
2022-09-06T23:58:30.066Z,93.80
